Time;durP1;ratioP1;P1;durP2;ratioP2;P2;SDS_P1;SDS_P2;PMS_P1;PMS_P2;Temp;Humidity;BMP_temperature;BMP_pressure;BME280_temperature;BME280_humidity;BME280_pressure;Samples;Min_cycle;Max_cycle;Signal;HPM_P1;HPM_P2
2023/04/23 05:01:28;;;;;;;2.45;1.08;;;12.30;99.90;;;;;;5892968;23;20024;31
2023/04/23 05:03:54;;;;;;;2.15;1.30;;;12.40;99.90;;;;;;4892840;29;20075;-70
2023/04/23 05:06:21;;;;;;;2.45;1.45;;;12.40;99.90;;;;;;4892452;29;20037;-71
2023/04/23 05:08:49;;;;;;;4.28;1.00;;;12.50;99.90;;;;;;4891257;29;20036;-68
2023/04/23 05:11:15;;;;;;;;;;;12.50;99.90;;;;;;4892098;29;20298;-68
2023/04/23 05:13:41;;;;;;;4.28;1.17;;;12.60;99.90;;;;;;4891011;29;20193;-69
2023/04/23 05:16:07;;;;;;;4.45;1.20;;;12.80;99.90;;;;;;4891447;29;20043;-69
2023/04/23 05:18:33;;;;;;;2.17;1.10;;;12.80;99.90;;;;;;4891521;29;20032;-69
2023/04/23 05:20:59;;;;;;;2.80;0.95;;;13.00;99.90;;;;;;4890697;29;20096;-69
2023/04/23 05:23:25;;;;;;;2.47;1.33;;;13.20;99.90;;;;;;4891671;29;20442;-69
2023/04/23 05:25:52;;;;;;;2.65;1.30;;;13.40;99.90;;;;;;4890901;29;20029;-69
2023/04/23 05:28:17;;;;;;;1.98;0.85;;;13.50;99.90;;;;;;4891736;29;20028;-71
2023/04/23 05:30:43;;;;;;;2.38;0.90;;;13.60;99.90;;;;;;4890863;29;20068;-68
2023/04/23 05:33:10;;;;;;;2.38;0.90;;;13.70;99.90;;;;;;4891338;29;20041;-69
2023/04/23 05:35:35;;;;;;;1.90;0.75;;;13.90;99.90;;;;;;4874670;29;20029;-68
2023/04/23 05:38:01;;;;;;;1.45;0.80;;;14.00;99.90;;;;;;4890727;29;20080;-70
2023/04/23 05:40:27;;;;;;;2.83;0.98;;;14.10;99.90;;;;;;4890793;29;20044;-68
2023/04/23 05:42:53;;;;;;;2.30;1.10;;;14.20;99.90;;;;;;4890786;29;20036;-70
2023/04/23 05:45:20;;;;;;;2.83;1.00;;;14.20;99.90;;;;;;4890932;29;20032;-69
2023/04/23 05:47:45;;;;;;;3.38;0.75;;;14.40;99.90;;;;;;4874199;29;20064;-68
2023/04/23 05:50:11;;;;;;;1.92;0.70;;;14.30;99.90;;;;;;4891320;29;20029;-68
2023/04/23 05:52:37;;;;;;;3.03;0.77;;;14.40;99.90;;;;;;4891118;29;20063;-68
2023/04/23 05:55:02;;;;;;;1.52;0.55;;;14.50;99.90;;;;;;4890733;29;20045;-70
2023/04/23 05:57:28;;;;;;;2.55;0.55;;;14.50;99.90;;;;;;4890951;29;20060;-68
2023/04/23 05:59:54;;;;;;;2.05;0.73;;;14.40;99.90;;;;;;4890121;29;20040;-68
2023/04/23 06:02:20;;;;;;;1.45;0.60;;;14.60;99.90;;;;;;4890321;29;20044;-68
2023/04/23 06:04:46;;;;;;;1.15;0.40;;;14.60;99.90;;;;;;4890179;29;20029;-70
2023/04/23 06:07:13;;;;;;;2.03;0.75;;;14.50;99.90;;;;;;4874086;29;20121;-69
2023/04/23 06:09:38;;;;;;;1.33;0.60;;;14.50;99.90;;;;;;4890380;29;20053;-70
2023/04/23 06:12:04;;;;;;;2.08;1.00;;;14.60;99.90;;;;;;4889913;29;20045;-70
2023/04/23 06:14:30;;;;;;;3.63;0.80;;;14.80;99.90;;;;;;4890509;29;20255;-71
2023/04/23 06:16:56;;;;;;;2.47;0.75;;;14.90;99.90;;;;;;4890108;29;20077;-71
2023/04/23 06:19:24;;;;;;;2.40;0.90;;;14.90;99.90;;;;;;4890338;29;20060;-69
2023/04/23 06:21:50;;;;;;;1.33;0.50;;;14.90;99.90;;;;;;4890276;29;20039;-71
2023/04/23 06:24:16;;;;;;;2.40;0.63;;;14.90;99.90;;;;;;4890555;29;20033;-73
2023/04/23 06:26:41;;;;;;;1.13;0.50;;;14.90;99.90;;;;;;4890462;29;20033;-70
2023/04/23 06:29:13;;;;;;;1.95;0.60;;;14.90;99.90;;;;;;4873350;29;20099;-71
2023/04/23 06:32:01;;;;;;;1.52;0.40;;;14.80;99.90;;;;;;4872631;29;20029;-71
2023/04/23 06:34:27;;;;;;;1.40;0.60;;;14.80;99.90;;;;;;4889857;29;20041;-74
2023/04/23 06:36:53;;;;;;;1.27;0.50;;;14.90;99.90;;;;;;4872949;29;20024;-71
2023/04/23 06:39:19;;;;;;;1.35;0.70;;;15.00;99.90;;;;;;4890030;29;20039;-71
2023/04/23 06:41:45;;;;;;;1.60;0.60;;;15.10;99.90;;;;;;4887418;29;20136;-70
2023/04/23 06:44:22;;;;;;;2.15;0.50;;;15.20;99.90;;;;;;4873655;29;20025;-70
2023/04/23 06:46:51;;;;;;;1.80;0.60;;;15.30;99.90;;;;;;4889556;29;20306;-70
2023/04/23 06:49:17;;;;;;;2.15;0.50;;;15.40;99.90;;;;;;4873302;29;20061;-71
2023/04/23 06:51:43;;;;;;;2.65;0.60;;;15.40;99.90;;;;;;4889550;29;20362;-70
2023/04/23 06:54:08;;;;;;;1.48;0.65;;;15.20;99.90;;;;;;4889374;29;20036;-68
2023/04/23 06:56:34;;;;;;;1.00;0.43;;;15.20;99.90;;;;;;4889976;29;20037;-70
2023/04/23 06:59:00;;;;;;;1.30;0.40;;;14.90;99.90;;;;;;4889050;29;20070;-70
2023/04/23 07:01:26;;;;;;;1.17;0.30;;;14.90;99.90;;;;;;4873160;29;20306;-70
2023/04/23 07:03:53;;;;;;;1.65;0.50;;;14.90;99.90;;;;;;4889361;29;20061;-69
2023/04/23 07:06:19;;;;;;;1.92;0.40;;;15.10;99.90;;;;;;4889467;29;20298;-70
2023/04/23 07:08:45;;;;;;;1.50;0.40;;;15.40;99.90;;;;;;4889585;29;20040;-70
2023/04/23 07:11:11;;;;;;;1.05;0.32;;;15.70;99.90;;;;;;4889387;29;20232;-71
2023/04/23 07:13:37;;;;;;;1.75;0.20;;;15.90;99.90;;;;;;4889620;29;20047;-72
2023/04/23 07:16:03;;;;;;;1.70;0.40;;;16.00;99.90;;;;;;4888977;29;20110;-71
2023/04/23 07:18:29;;;;;;;0.65;0.30;;;16.10;99.90;;;;;;4888199;29;20037;-70
2023/04/23 07:20:55;;;;;;;0.82;0.40;;;16.40;99.90;;;;;;4889060;29;20227;-71
2023/04/23 07:23:21;;;;;;;1.20;0.20;;;16.80;99.90;;;;;;4871107;29;20052;-70
2023/04/23 07:25:46;;;;;;;0.90;0.30;;;16.80;99.90;;;;;;4904996;29;20336;-70
2023/04/23 07:28:12;;;;;;;0.75;0.35;;;16.90;99.90;;;;;;4909744;29;20032;-71
2023/04/23 07:30:56;;;;;;;1.65;0.40;;;16.80;99.90;;;;;;4898657;29;20116;-76
2023/04/23 07:33:22;;;;;;;1.13;0.40;;;16.80;99.90;;;;;;4891566;29;20036;-71
2023/04/23 07:35:48;;;;;;;1.40;0.30;;;16.80;99.70;;;;;;4907933;29;20100;-70
2023/04/23 07:38:13;;;;;;;1.30;0.40;;;17.10;99.40;;;;;;4911724;29;20041;-70
2023/04/23 07:40:39;;;;;;;1.48;0.40;;;17.00;99.00;;;;;;4919751;29;20096;-71
2023/04/23 07:43:05;;;;;;;1.85;0.38;;;16.80;98.90;;;;;;4923610;29;20063;-72
2023/04/23 07:45:31;;;;;;;1.25;0.35;;;16.80;99.00;;;;;;4914326;29;20028;-70
2023/04/23 07:47:57;;;;;;;1.00;0.57;;;16.90;98.60;;;;;;4909091;29;20055;-70
2023/04/23 07:50:23;;;;;;;1.40;0.40;;;16.90;97.90;;;;;;4908776;29;20074;-72
2023/04/23 07:52:49;;;;;;;2.53;0.30;;;17.00;97.80;;;;;;4890648;29;20044;-76
2023/04/23 07:55:15;;;;;;;1.40;0.60;;;17.00;97.90;;;;;;4907596;29;20068;-72
2023/04/23 07:57:41;;;;;;;3.03;0.57;;;17.10;97.90;;;;;;4907461;29;20107;-71
2023/04/23 08:00:08;;;;;;;1.55;0.50;;;16.60;99.10;;;;;;4906523;29;20326;-69
2023/04/23 08:02:37;;;;;;;1.38;0.55;;;16.80;99.70;;;;;;4907357;29;20048;-70
2023/04/23 08:05:03;;;;;;;2.45;0.77;;;16.90;99.10;;;;;;4907152;29;20036;-70
2023/04/23 08:07:29;;;;;;;1.25;0.40;;;17.20;98.80;;;;;;4907511;29;20092;-69
2023/04/23 08:09:55;;;;;;;1.60;0.50;;;17.30;98.00;;;;;;4907065;29;20040;-70
2023/04/23 08:12:20;;;;;;;1.58;0.63;;;17.30;97.70;;;;;;4903494;29;20060;-69
2023/04/23 08:14:46;;;;;;;1.48;0.70;;;17.30;97.30;;;;;;4906340;29;20056;-71
2023/04/23 08:17:15;;;;;;;1.83;0.70;;;17.30;97.30;;;;;;4890347;29;20066;-71
2023/04/23 08:19:40;;;;;;;2.10;0.60;;;17.20;97.00;;;;;;4907449;29;20041;-71
2023/04/23 08:22:06;;;;;;;1.63;0.80;;;17.20;97.10;;;;;;4907142;29;20035;-71
2023/04/23 08:24:32;;;;;;;1.42;0.60;;;17.20;97.00;;;;;;4890878;29;20096;-71
2023/04/23 08:26:57;;;;;;;1.73;0.70;;;17.30;96.80;;;;;;4906926;29;20044;-72
2023/04/23 08:29:23;;;;;;;1.55;0.50;;;17.40;96.60;;;;;;4907459;29;20325;-71
2023/04/23 08:31:49;;;;;;;1.10;0.40;;;17.50;96.10;;;;;;4907227;29;20028;-68
2023/04/23 08:34:15;;;;;;;1.67;0.70;;;17.70;95.70;;;;;;4906812;29;20052;-70
2023/04/23 08:36:40;;;;;;;1.73;0.60;;;17.80;95.20;;;;;;4907604;29;20025;-70
2023/04/23 08:39:06;;;;;;;1.15;0.47;;;17.90;94.70;;;;;;4906968;29;20334;-70
2023/04/23 08:41:43;;;;;;;2.00;0.60;;;17.90;94.50;;;;;;4907594;29;20089;-71
2023/04/23 08:44:17;;;;;;;1.58;0.60;;;18.00;94.40;;;;;;4919535;29;20056;-70
2023/04/23 08:46:44;;;;;;;2.65;0.90;;;18.20;94.70;;;;;;4907086;29;20349;-71
2023/04/23 08:49:15;;;;;;;2.13;0.90;;;18.30;94.80;;;;;;4907269;29;20100;-72
2023/04/23 08:51:47;;;;;;;1.73;0.82;;;18.40;94.40;;;;;;4908472;29;20317;-70
2023/04/23 08:54:18;;;;;;;1.95;0.90;;;18.50;94.10;;;;;;4906295;29;20063;-71
2023/04/23 08:56:45;;;;;;;2.20;0.80;;;18.60;93.60;;;;;;4909422;29;20340;-71
2023/04/23 08:59:11;;;;;;;1.95;1.08;;;18.80;93.30;;;;;;4910123;29;20198;-71
2023/04/23 09:01:37;;;;;;;2.03;0.80;;;19.00;92.90;;;;;;4910049;29;20115;-70
2023/04/23 09:04:04;;;;;;;1.73;0.75;;;19.10;92.10;;;;;;4909970;29;20210;-71
2023/04/23 09:06:31;;;;;;;2.78;0.88;;;19.20;92.20;;;;;;4910464;29;20184;-71
2023/04/23 09:08:58;;;;;;;1.55;0.68;;;19.20;91.90;;;;;;4909151;29;20029;-70
2023/04/23 09:11:27;;;;;;;1.65;0.77;;;19.50;91.40;;;;;;4909730;29;20241;-70
2023/04/23 09:13:55;;;;;;;1.55;0.57;;;19.60;90.70;;;;;;4910001;29;20374;-71
2023/04/23 09:16:21;;;;;;;1.55;0.70;;;19.70;91.20;;;;;;4910106;29;20032;-70
2023/04/23 09:18:46;;;;;;;1.92;0.60;;;19.80;91.20;;;;;;4909855;29;20167;-69
2023/04/23 09:21:13;;;;;;;1.85;0.77;;;20.00;90.50;;;;;;4909759;29;20044;-70
2023/04/23 09:23:40;;;;;;;2.80;0.80;;;20.10;90.00;;;;;;4909989;29;20104;-69
2023/04/23 09:26:06;;;;;;;2.65;0.80;;;20.00;90.00;;;;;;4909854;29;20020;-70
2023/04/23 09:28:36;;;;;;;1.65;0.80;;;19.70;90.10;;;;;;4909902;29;20084;-72
2023/04/23 09:31:05;;;;;;;0.93;0.50;;;19.90;89.80;;;;;;4887349;29;20037;-71
2023/04/23 09:33:33;;;;;;;2.15;0.68;;;20.00;88.60;;;;;;4905730;29;20099;-71
2023/04/23 09:36:08;;;;;;;2.17;0.70;;;19.90;87.50;;;;;;4909366;29;20029;-70
2023/04/23 09:38:34;;;;;;;0.82;0.45;;;20.20;87.00;;;;;;4909807;29;20043;-70
2023/04/23 09:41:23;;;;;;;1.52;0.52;;;20.50;83.50;;;;;;4909084;29;20036;-70
2023/04/23 09:43:49;;;;;;;0.73;0.40;;;20.40;81.10;;;;;;4909871;29;20060;-72
2023/04/23 09:46:14;;;;;;;1.23;0.47;;;20.30;80.30;;;;;;4909441;29;20302;-70
2023/04/23 09:48:43;;;;;;;1.10;0.50;;;20.00;79.40;;;;;;4909786;29;20144;-69
2023/04/23 09:51:13;;;;;;;1.67;0.50;;;20.00;80.80;;;;;;4909090;29;20052;-70
2023/04/23 09:53:42;;;;;;;1.60;0.50;;;20.30;81.70;;;;;;4909560;29;20048;-71
2023/04/23 09:56:08;;;;;;;2.38;0.50;;;20.50;79.10;;;;;;4908888;29;20032;-73
2023/04/23 09:58:33;;;;;;;1.70;0.40;;;20.00;79.00;;;;;;4909508;29;20092;-68
2023/04/23 10:01:07;;;;;;;1.50;0.40;;;20.00;78.60;;;;;;4909203;29;20251;-69
2023/04/23 10:03:32;;;;;;;1.35;0.60;;;19.60;80.10;;;;;;4909264;29;20246;-71
2023/04/23 10:05:58;;;;;;;2.55;0.30;;;19.70;82.70;;;;;;4909018;29;20033;-69
2023/04/23 10:08:24;;;;;;;3.17;0.50;;;19.80;79.10;;;;;;4908254;29;20341;-69
2023/04/23 10:10:50;;;;;;;1.42;0.60;;;20.10;78.90;;;;;;4909280;29;20043;-71
2023/04/23 10:13:17;;;;;;;2.40;0.70;;;20.30;78.50;;;;;;4908415;29;20036;-70
2023/04/23 10:15:46;;;;;;;1.77;0.50;;;20.40;79.30;;;;;;4909327;29;20044;-72
2023/04/23 10:18:15;;;;;;;1.08;0.30;;;20.60;77.10;;;;;;4908670;29;20087;-70
2023/04/23 10:20:41;;;;;;;1.98;0.45;;;20.50;76.30;;;;;;4876806;29;20222;-71
2023/04/23 10:23:08;;;;;;;2.10;0.40;;;20.30;76.50;;;;;;4908191;29;20048;-72
2023/04/23 10:25:37;;;;;;;1.55;0.47;;;20.20;77.80;;;;;;4907287;29;20071;-71
2023/04/23 10:28:06;;;;;;;0.93;0.40;;;20.70;77.90;;;;;;4907923;29;20087;-70
2023/04/23 10:30:32;;;;;;;0.85;0.30;;;21.10;77.90;;;;;;4908593;29;20020;-72
2023/04/23 10:33:00;;;;;;;1.73;0.38;;;21.30;77.10;;;;;;4909130;29;20043;-71
2023/04/23 10:35:26;;;;;;;1.20;0.40;;;21.40;75.10;;;;;;4908790;29;20600;-71
2023/04/23 10:37:52;;;;;;;1.60;0.50;;;21.10;77.20;;;;;;4908720;29;20035;-69
2023/04/23 10:40:24;;;;;;;2.00;0.50;;;21.00;76.50;;;;;;4908476;29;20355;-69
2023/04/23 10:42:50;;;;;;;2.58;0.40;;;21.00;78.60;;;;;;4908591;29;20051;-69
2023/04/23 10:45:18;;;;;;;1.63;0.50;;;21.10;78.60;;;;;;4908252;29;20272;-68
2023/04/23 10:47:44;;;;;;;2.10;0.50;;;21.40;77.50;;;;;;4908878;29;20048;-69
2023/04/23 10:50:27;;;;;;;1.58;0.57;;;21.40;76.80;;;;;;4907773;29;20051;-70
2023/04/23 10:52:55;;;;;;;1.48;0.43;;;21.40;76.60;;;;;;4908101;29;20032;-71
2023/04/23 10:55:26;;;;;;;2.38;0.30;;;21.50;76.20;;;;;;4907952;29;20043;-70
2023/04/23 10:57:57;;;;;;;1.23;0.40;;;21.60;76.80;;;;;;4908375;29;20040;-69
2023/04/23 11:00:23;;;;;;;1.15;0.40;;;21.60;76.00;;;;;;4907811;29;20032;-69
2023/04/23 11:02:50;;;;;;;1.25;0.47;;;21.60;74.80;;;;;;4908299;29;20203;-69
2023/04/23 11:05:16;;;;;;;1.48;0.38;;;22.00;75.30;;;;;;4914591;29;20064;-70
2023/04/23 11:08:00;;;;;;;0.95;0.40;;;22.10;73.40;;;;;;4908442;29;20041;-68
2023/04/23 11:10:26;;;;;;;1.27;0.45;;;22.20;74.90;;;;;;4907933;29;20056;-69
2023/04/23 11:12:54;;;;;;;1.00;0.43;;;22.40;74.30;;;;;;4891597;29;20080;-69
2023/04/23 11:15:20;;;;;;;1.20;0.40;;;22.80;74.70;;;;;;4907772;29;20476;-70
2023/04/23 11:17:47;;;;;;;1.83;0.50;;;23.00;71.50;;;;;;4908137;29;20194;-70
2023/04/23 11:20:20;;;;;;;2.17;0.60;;;22.80;68.90;;;;;;4907255;29;20047;-69
2023/04/23 11:22:48;;;;;;;0.90;0.40;;;22.80;70.70;;;;;;4907883;29;20052;-70
2023/04/23 11:25:18;;;;;;;1.42;0.60;;;22.90;70.70;;;;;;4907501;29;20040;-69
2023/04/23 11:27:45;;;;;;;1.52;0.40;;;22.60;70.80;;;;;;4891442;29;20231;-70
2023/04/23 11:30:15;;;;;;;1.15;0.43;;;23.50;70.70;;;;;;4892551;29;20041;-71
2023/04/23 11:32:44;;;;;;;1.20;0.40;;;24.30;67.50;;;;;;4907568;29;20036;-72
2023/04/23 11:35:12;;;;;;;2.58;0.50;;;24.90;67.00;;;;;;4907523;29;20044;-70
2023/04/23 11:37:42;;;;;;;1.95;0.30;;;24.50;66.60;;;;;;4907932;29;20267;-70
2023/04/23 11:40:10;;;;;;;1.52;0.60;;;23.70;69.00;;;;;;4907425;29;20050;-69
2023/04/23 11:42:53;;;;;;;0.98;0.30;;;23.30;67.30;;;;;;4907684;29;20319;-70
2023/04/23 11:45:26;;;;;;;1.08;0.30;;;23.80;67.60;;;;;;4907262;29;20048;-70
2023/04/23 11:47:57;;;;;;;1.20;0.30;;;23.90;66.80;;;;;;4907468;29;20361;-69
2023/04/23 11:50:25;;;;;;;1.13;0.30;;;24.90;65.90;;;;;;4907499;29;20312;-70
2023/04/23 11:52:51;;;;;;;0.98;0.40;;;26.00;64.10;;;;;;4907748;29;20032;-71
2023/04/23 11:55:18;;;;;;;0.90;0.30;;;25.80;63.60;;;;;;4907130;29;20041;-70
2023/04/23 11:57:48;;;;;;;2.10;0.50;;;26.50;63.30;;;;;;4907633;29;20298;-70
2023/04/23 12:00:16;;;;;;;1.58;0.40;;;27.40;63.90;;;;;;4907105;29;20048;-69
2023/04/23 12:03:10;;;;;;;0.75;0.30;;;28.20;60.80;;;;;;4907310;29;20057;-69
2023/04/23 12:05:41;;;;;;;0.60;0.20;;;28.20;60.00;;;;;;4907575;29;20037;-70
2023/04/23 12:08:11;;;;;;;0.80;0.20;;;26.50;60.70;;;;;;4907276;29;20055;-69
2023/04/23 12:11:00;;;;;;;1.33;0.50;;;26.60;61.10;;;;;;4907560;29;20063;-70
2023/04/23 12:13:32;;;;;;;1.33;0.38;;;26.90;63.20;;;;;;4906644;29;20103;-68
2023/04/23 12:15:59;;;;;;;1.20;0.40;;;28.20;60.50;;;;;;4890743;29;20047;-69
2023/04/23 12:18:29;;;;;;;1.73;0.28;;;28.40;59.20;;;;;;4906767;29;20286;-68
2023/04/23 12:20:56;;;;;;;1.20;0.40;;;28.00;59.90;;;;;;4907627;29;20032;-69
2023/04/23 12:23:28;;;;;;;2.67;0.40;;;26.80;60.10;;;;;;4906911;29;20081;-69
2023/04/23 12:25:54;;;;;;;0.95;0.32;;;25.60;61.10;;;;;;4907289;29;20036;-68
2023/04/23 12:28:23;;;;;;;0.82;0.20;;;25.10;63.30;;;;;;4907042;29;20068;-70
2023/04/23 12:30:49;;;;;;;0.98;0.40;;;24.50;67.80;;;;;;4908560;29;20099;-71
2023/04/23 12:33:16;;;;;;;1.15;0.40;;;24.00;65.40;;;;;;4910708;29;20047;-71
2023/04/23 12:35:43;;;;;;;1.23;0.47;;;24.00;65.10;;;;;;4911434;29;20039;-70
2023/04/23 12:38:25;;;;;;;0.98;0.40;;;23.50;65.50;;;;;;4911081;29;20059;-70
2023/04/23 12:40:54;;;;;;;2.05;0.50;;;25.10;64.10;;;;;;4898895;29;20053;-70
2023/04/23 12:43:19;;;;;;;1.30;0.30;;;26.50;62.10;;;;;;4910409;29;20048;-69
2023/04/23 12:45:45;;;;;;;2.13;0.35;;;28.10;59.60;;;;;;4910793;29;20045;-70
2023/04/23 12:48:11;;;;;;;1.85;0.30;;;30.10;58.10;;;;;;4910213;29;20307;-71
2023/04/23 12:50:38;;;;;;;1.42;0.20;;;31.90;56.20;;;;;;4910679;29;20048;-70
2023/04/23 12:53:04;;;;;;;1.38;0.38;;;32.80;53.50;;;;;;4910865;29;20112;-71
2023/04/23 12:55:29;;;;;;;1.10;0.30;;;31.60;54.80;;;;;;4910162;29;20226;-71
2023/04/23 12:57:55;;;;;;;1.23;0.20;;;29.80;53.90;;;;;;4910828;29;20100;-70
2023/04/23 13:00:22;;;;;;;1.23;0.40;;;27.90;56.20;;;;;;4909227;29;20068;-68
2023/04/23 13:02:48;;;;;;;1.80;0.40;;;28.50;59.20;;;;;;4893600;29;20330;-71
2023/04/23 13:05:14;;;;;;;1.15;0.32;;;30.70;55.50;;;;;;4910275;29;20038;-71
2023/04/23 13:07:39;;;;;;;1.52;0.20;;;31.90;54.00;;;;;;4910077;29;20254;-69
2023/04/23 13:10:06;;;;;;;3.22;0.40;;;34.30;54.60;;;;;;4910065;29;20064;-70
2023/04/23 13:12:32;;;;;;;1.75;0.40;;;34.80;51.00;;;;;;4909653;29;20230;-67
2023/04/23 13:14:58;;;;;;;0.98;0.32;;;35.20;50.70;;;;;;4910322;29;20056;-68
2023/04/23 13:17:25;;;;;;;1.00;0.30;;;33.20;50.90;;;;;;4909823;29;20323;-69
2023/04/23 13:19:54;;;;;;;0.70;0.30;;;32.60;51.90;;;;;;4910418;29;20040;-70
2023/04/23 13:22:21;;;;;;;2.20;0.40;;;33.50;51.80;;;;;;4909810;29;20040;-68
2023/04/23 13:24:47;;;;;;;1.63;0.40;;;33.00;52.70;;;;;;4910360;29;20033;-70
2023/04/23 13:27:13;;;;;;;2.47;0.28;;;33.50;50.50;;;;;;4909460;29;20032;-70
2023/04/23 13:29:39;;;;;;;1.30;0.40;;;33.00;49.60;;;;;;4910021;29;20036;-71
2023/04/23 13:32:05;;;;;;;1.55;0.30;;;32.30;49.40;;;;;;4910159;29;20060;-69
2023/04/23 13:34:32;;;;;;;2.83;0.35;;;32.50;50.40;;;;;;4909791;29;20047;-69
2023/04/23 13:36:59;;;;;;;0.80;0.30;;;29.80;51.40;;;;;;4909997;29;20071;-69
2023/04/23 13:39:25;;;;;;;0.70;0.28;;;29.00;53.20;;;;;;4909373;29;20043;-70
2023/04/23 13:41:50;;;;;;;1.25;0.30;;;30.60;51.00;;;;;;4909636;29;20108;-70
2023/04/23 13:44:16;;;;;;;0.80;0.43;;;32.90;49.30;;;;;;4909087;29;20029;-70
2023/04/23 13:46:42;;;;;;;1.13;0.30;;;32.80;48.30;;;;;;4910015;29;20016;-70
2023/04/23 13:49:08;;;;;;;1.30;0.30;;;31.70;48.90;;;;;;4909978;29;20028;-69
2023/04/23 13:51:33;;;;;;;0.77;0.30;;;30.20;50.40;;;;;;4909166;29;20043;-70
2023/04/23 13:53:59;;;;;;;0.85;0.30;;;30.40;49.90;;;;;;4909751;29;20258;-68
2023/04/23 13:56:29;;;;;;;0.95;0.40;;;30.20;51.10;;;;;;4909293;29;20187;-70
2023/04/23 13:59:00;;;;;;;1.85;0.47;;;31.10;49.00;;;;;;4909343;29;20251;-70
2023/04/23 14:01:27;;;;;;;0.70;0.30;;;33.50;49.20;;;;;;4909407;29;20074;-70
2023/04/23 14:03:53;;;;;;;1.85;0.40;;;34.60;47.80;;;;;;4909248;29;20060;-70
2023/04/23 14:06:18;;;;;;;2.20;0.38;;;35.00;45.30;;;;;;4909032;29;20029;-71
2023/04/23 14:08:44;;;;;;;1.08;0.38;;;32.10;45.80;;;;;;4909664;29;20062;-70
2023/04/23 14:11:10;;;;;;;1.52;0.40;;;31.40;47.70;;;;;;4909400;29;20084;-69
2023/04/23 14:13:36;;;;;;;1.30;0.40;;;31.60;48.70;;;;;;4908780;29;20036;-70
2023/04/23 14:16:02;;;;;;;1.75;0.45;;;32.60;48.10;;;;;;4908586;29;20064;-70
2023/04/23 14:18:27;;;;;;;1.73;0.77;;;32.00;47.30;;;;;;4908564;29;20021;-71
2023/04/23 14:20:53;;;;;;;2.63;0.65;;;29.80;48.50;;;;;;4909147;29;20032;-69
2023/04/23 14:23:22;;;;;;;1.48;0.30;;;29.50;48.80;;;;;;4908501;29;20044;-70
2023/04/23 14:25:56;;;;;;;1.27;0.40;;;29.50;48.30;;;;;;4908710;29;20291;-71
2023/04/23 14:28:33;;;;;;;2.10;0.52;;;29.30;48.80;;;;;;4908327;29;20337;-70
2023/04/23 14:31:00;;;;;;;1.60;0.20;;;28.80;48.70;;;;;;4909201;29;20032;-71
2023/04/23 14:33:26;;;;;;;2.13;0.60;;;30.00;47.00;;;;;;4908521;29;20044;-74
2023/04/23 14:35:51;;;;;;;0.85;0.20;;;30.40;47.20;;;;;;4892158;29;20040;-69
2023/04/23 14:38:20;;;;;;;2.25;0.30;;;30.50;47.20;;;;;;4906885;29;20088;-79
2023/04/23 14:40:46;;;;;;;0.90;0.30;;;31.70;46.30;;;;;;4900862;29;20025;-71
2023/04/23 14:43:12;;;;;;;1.85;0.40;;;32.20;45.80;;;;;;4904631;29;20044;-72
2023/04/23 14:45:37;;;;;;;1.92;0.50;;;30.00;46.40;;;;;;4899588;29;20326;-72
2023/04/23 14:48:03;;;;;;;1.75;0.40;;;29.30;48.10;;;;;;4904363;29;20060;-71
2023/04/23 14:50:29;;;;;;;0.90;0.28;;;27.50;48.00;;;;;;4908537;29;20222;-71
2023/04/23 14:52:56;;;;;;;1.08;0.30;;;26.40;50.90;;;;;;4905252;29;20045;-73
2023/04/23 14:55:22;;;;;;;1.33;0.25;;;26.00;53.50;;;;;;4905237;29;20234;-71
2023/04/23 14:57:48;;;;;;;1.48;0.47;;;25.30;52.10;;;;;;4915728;29;20067;-72
2023/04/23 15:00:16;;;;;;;1.23;0.30;;;25.00;54.00;;;;;;4913973;29;20039;-71
2023/04/23 15:02:45;;;;;;;2.55;0.50;;;24.60;52.90;;;;;;4899114;29;20056;-73
2023/04/23 15:05:12;;;;;;;1.33;0.40;;;24.00;54.30;;;;;;4884392;29;20080;-71
2023/04/23 15:07:39;;;;;;;2.45;0.60;;;23.80;54.60;;;;;;4882564;29;20052;-71
2023/04/23 15:10:07;;;;;;;2.05;0.57;;;23.50;56.70;;;;;;4880557;29;20056;-72
2023/04/23 15:12:39;;;;;;;1.58;0.40;;;23.50;58.50;;;;;;4883771;29;20043;-72
2023/04/23 15:15:13;;;;;;;1.35;0.38;;;23.20;56.20;;;;;;4863157;29;20037;-71
2023/04/23 15:17:39;;;;;;;1.27;0.30;;;22.90;56.30;;;;;;4896853;29;20041;-73
2023/04/23 15:20:05;;;;;;;3.45;0.40;;;22.90;56.50;;;;;;4880941;29;20025;-72
2023/04/23 15:22:31;;;;;;;1.80;0.43;;;23.10;56.70;;;;;;4878800;29;20044;-71
2023/04/23 15:24:57;;;;;;;1.52;0.50;;;23.40;58.90;;;;;;4889023;29;20021;-73
2023/04/23 15:27:23;;;;;;;2.40;0.60;;;23.60;58.20;;;;;;4888745;29;20032;-77
2023/04/23 15:29:49;;;;;;;3.67;0.70;;;23.50;56.50;;;;;;4889406;29;20029;-73
2023/04/23 15:32:15;;;;;;;1.35;0.50;;;23.30;56.60;;;;;;4872829;29;20032;-71
2023/04/23 15:34:41;;;;;;;1.98;0.60;;;23.10;57.30;;;;;;4889312;29;20092;-72
2023/04/23 15:37:07;;;;;;;1.65;0.60;;;23.10;58.80;;;;;;4889214;29;20028;-71
2023/04/23 15:39:33;;;;;;;1.88;0.60;;;22.90;58.60;;;;;;4888422;29;20315;-72
2023/04/23 15:41:58;;;;;;;3.42;0.80;;;22.60;57.20;;;;;;4889066;29;20031;-72
2023/04/23 15:44:25;;;;;;;3.70;0.70;;;22.50;58.50;;;;;;4888571;29;20053;-72
2023/04/23 15:46:51;;;;;;;2.65;0.60;;;22.10;63.10;;;;;;4888741;29;20048;-72
2023/04/23 15:49:16;;;;;;;2.83;0.57;;;20.70;73.30;;;;;;4889088;29;20052;-72
2023/04/23 15:51:42;;;;;;;2.05;0.80;;;19.70;77.70;;;;;;4888763;29;20025;-71
2023/04/23 15:54:08;;;;;;;2.92;0.43;;;19.00;79.70;;;;;;4888810;29;20049;-71
2023/04/23 15:56:34;;;;;;;1.42;0.40;;;18.60;81.00;;;;;;4888257;29;20059;-71
2023/04/23 15:59:00;;;;;;;1.90;0.50;;;18.40;79.40;;;;;;4888962;29;20033;-71
2023/04/23 16:01:26;;;;;;;1.58;0.57;;;18.40;81.40;;;;;;4888221;29;20033;-71
2023/04/23 16:03:52;;;;;;;1.10;0.30;;;18.50;78.50;;;;;;4906976;29;20068;-71
2023/04/23 16:06:18;;;;;;;1.23;0.50;;;18.70;77.20;;;;;;4906492;29;20226;-72
2023/04/23 16:08:43;;;;;;;0.90;0.20;;;18.90;77.40;;;;;;4907697;29;20080;-70
2023/04/23 16:11:10;;;;;;;1.50;0.50;;;19.10;77.10;;;;;;4890440;29;20043;-71
2023/04/23 16:13:35;;;;;;;1.83;0.30;;;19.10;76.00;;;;;;4907105;29;20131;-71
2023/04/23 16:16:01;;;;;;;1.45;0.40;;;19.30;76.50;;;;;;4907318;29;20306;-70
2023/04/23 16:18:27;;;;;;;2.42;0.70;;;19.50;77.50;;;;;;4906885;29;20277;-71
2023/04/23 16:20:53;;;;;;;1.63;0.70;;;19.70;77.80;;;;;;4907427;29;20043;-72
2023/04/23 16:23:19;;;;;;;3.05;0.73;;;19.60;75.40;;;;;;4890800;29;20037;-69
2023/04/23 16:25:45;;;;;;;2.95;1.00;;;19.40;78.00;;;;;;4907918;29;20029;-69
2023/04/23 16:28:12;;;;;;;2.75;1.10;;;19.40;77.20;;;;;;4914008;29;20048;-70
2023/04/23 16:30:38;;;;;;;3.65;1.17;;;19.20;77.50;;;;;;4913103;29;20044;-71
2023/04/23 16:33:05;;;;;;;3.00;0.80;;;19.10;80.00;;;;;;4907042;29;20044;-70
2023/04/23 16:35:32;;;;;;;1.50;0.60;;;19.10;77.50;;;;;;4906940;29;20219;-69
2023/04/23 16:37:57;;;;;;;4.55;0.70;;;18.90;77.90;;;;;;4907420;29;20064;-70
2023/04/23 16:40:23;;;;;;;4.40;1.00;;;18.50;83.60;;;;;;4890032;29;20040;-69
2023/04/23 16:42:49;;;;;;;5.10;1.48;;;16.60;99.90;;;;;;4907020;29;20214;-70
2023/04/23 16:45:15;;;;;;;2.40;1.00;;;13.50;99.90;;;;;;4907371;29;20088;-71
2023/04/23 16:47:42;;;;;;;2.80;1.00;;;12.90;99.90;;;;;;4906841;29;20109;-68
2023/04/23 16:50:08;;;;;;;5.70;1.20;;;12.80;99.90;;;;;;4906971;29;20045;-69
2023/04/23 16:52:34;;;;;;;3.40;1.25;;;12.90;99.90;;;;;;4906611;29;20037;-69
2023/04/23 16:55:00;;;;;;;3.72;1.60;;;13.00;99.90;;;;;;4907046;29;20267;-69
2023/04/23 16:57:26;;;;;;;3.72;1.70;;;13.10;99.90;;;;;;4906862;29;20032;-68
2023/04/23 16:59:51;;;;;;;5.53;2.08;;;13.30;99.90;;;;;;4907521;29;20037;-69
2023/04/23 17:02:17;;;;;;;3.33;1.85;;;13.30;99.90;;;;;;4907135;29;20068;-70
2023/04/23 17:04:43;;;;;;;5.25;2.13;;;13.30;99.90;;;;;;4906671;29;20072;-69
2023/04/23 17:07:09;;;;;;;4.72;2.17;;;13.30;99.90;;;;;;4907155;29;20052;-69
2023/04/23 17:09:35;;;;;;;4.05;1.85;;;13.50;99.90;;;;;;4889931;29;20041;-70
2023/04/23 17:12:01;;;;;;;3.88;1.80;;;13.50;99.90;;;;;;4890460;29;20071;-71
2023/04/23 17:14:26;;;;;;;4.43;1.80;;;13.50;99.90;;;;;;4906324;29;20048;-70
2023/04/23 17:16:52;;;;;;;3.95;1.83;;;13.60;99.90;;;;;;4908193;29;20043;-68
2023/04/23 17:19:18;;;;;;;6.22;1.67;;;13.70;99.90;;;;;;4910147;29;20020;-69
2023/04/23 17:21:44;;;;;;;3.63;2.05;;;13.50;99.90;;;;;;4909674;29;20048;-70
2023/04/23 17:24:09;;;;;;;4.18;1.80;;;13.40;99.90;;;;;;4910504;29;20103;-71
2023/04/23 17:26:38;;;;;;;3.72;1.70;;;13.20;99.90;;;;;;4909646;29;20024;-70
2023/04/23 17:29:04;;;;;;;5.07;2.00;;;13.20;99.90;;;;;;4910280;29;20051;-69
2023/04/23 17:31:30;;;;;;;3.67;1.52;;;12.90;99.90;;;;;;4909602;29;20271;-70
2023/04/23 17:33:56;;;;;;;3.55;1.60;;;12.80;99.90;;;;;;4910208;29;20099;-70
2023/04/23 17:36:22;;;;;;;4.15;1.52;;;12.90;99.90;;;;;;4910188;29;20047;-67
2023/04/23 17:38:48;;;;;;;4.03;1.70;;;13.10;99.90;;;;;;4905689;29;20037;-69
2023/04/23 17:41:15;;;;;;;3.22;1.60;;;13.10;99.90;;;;;;4909898;29;20020;-69
2023/04/23 17:43:41;;;;;;;4.35;1.80;;;13.10;99.90;;;;;;4909301;29;20055;-68
2023/04/23 17:46:07;;;;;;;6.47;1.65;;;13.00;99.90;;;;;;4892166;29;20378;-69
2023/04/23 17:48:33;;;;;;;2.53;1.30;;;12.90;99.90;;;;;;4909258;29;20071;-69